ANA631 RJTT-RJOI
Flight info
| Callsign | ANA631 |
|---|---|
| Flight time | 1h 24m |
| Altitude | 32000 |
| Route | LAXAS Y56 IBENO KOHWA LABEL KIE KTE V40 MYE |
| Aircraft | A320/M-SDE3FGHIRWY/LB1 |
Departure
| Time | 2026-05-04 06:14 |
|---|---|
| Airport | Tokyo Haneda International Airport (RJTT) |
Arrival
| Time | 2026-05-04 07:38 |
|---|---|
| Airport | Iwakuni Kintaikyo Airport (RJOI) |
| Time | Latitude | Longitude | Altitude | Speed | Heading |
|---|---|---|---|---|---|
| 2026-05-04 05:41 | 35.54825 | 139.79269 | 29 ft | 0 kts | 323° |
| 2026-05-04 05:58 | 35.54814 | 139.79279 | 28 ft | 3 kts | 323° |
| 2026-05-04 05:58 | 35.54798 | 139.79294 | 28 ft | 3 kts | 323° |
| 2026-05-04 05:58 | 35.54782 | 139.79309 | 28 ft | 3 kts | 323° |
| 2026-05-04 05:58 | 35.54766 | 139.79323 | 28 ft | 3 kts | 323° |
| 2026-05-04 05:59 | 35.54749 | 139.79338 | 28 ft | 3 kts | 323° |
| 2026-05-04 05:59 | 35.54733 | 139.79353 | 28 ft | 3 kts | 323° |
| 2026-05-04 05:59 | 35.54718 | 139.79367 | 27 ft | 3 kts | 334° |
| 2026-05-04 05:59 | 35.54700 | 139.79374 | 28 ft | 3 kts | 9° |
| 2026-05-04 06:00 | 35.54682 | 139.79366 | 28 ft | 3 kts | 40° |
| 2026-05-04 06:00 | 35.54670 | 139.79350 | 28 ft | 1 kts | 59° |
| 2026-05-04 06:00 | 35.54668 | 139.79348 | 28 ft | 0 kts | 60° |
| 2026-05-04 06:03 | 35.54680 | 139.79371 | 28 ft | 5 kts | 60° |
| 2026-05-04 06:03 | 35.54714 | 139.79444 | 27 ft | 13 kts | 60° |
| 2026-05-04 06:05 | 35.55119 | 139.79444 | 27 ft | 18 kts | 330° |
| 2026-05-04 06:05 | 35.55417 | 139.79230 | 26 ft | 28 kts | 330° |
| 2026-05-04 06:05 | 35.55578 | 139.79116 | 27 ft | 26 kts | 330° |
| 2026-05-04 06:06 | 35.55727 | 139.79011 | 30 ft | 24 kts | 329° |
| 2026-05-04 06:06 | 35.55865 | 139.78911 | 24 ft | 23 kts | 329° |
| 2026-05-04 06:06 | 35.56026 | 139.78799 | 25 ft | 28 kts | 329° |
| 2026-05-04 06:06 | 35.56191 | 139.78682 | 25 ft | 26 kts | 331° |
| 2026-05-04 06:07 | 35.56342 | 139.78575 | 25 ft | 24 kts | 329° |
| 2026-05-04 06:07 | 35.56477 | 139.78479 | 29 ft | 21 kts | 330° |
| 2026-05-04 06:07 | 35.56588 | 139.78367 | 25 ft | 19 kts | 314° |
| 2026-05-04 06:07 | 35.56676 | 139.78259 | 27 ft | 16 kts | 315° |
| 2026-05-04 06:08 | 35.56749 | 139.78170 | 28 ft | 14 kts | 315° |
| 2026-05-04 06:08 | 35.56777 | 139.78081 | 30 ft | 11 kts | 255° |
| 2026-05-04 06:08 | 35.56736 | 139.78012 | 31 ft | 10 kts | 227° |
| 2026-05-04 06:08 | 35.56694 | 139.77953 | 33 ft | 8 kts | 230° |
| 2026-05-04 06:09 | 35.56665 | 139.77910 | 34 ft | 4 kts | 234° |
| 2026-05-04 06:09 | 35.56661 | 139.77903 | 35 ft | 0 kts | 240° |
| 2026-05-04 06:11 | 35.56652 | 139.77882 | 36 ft | 1 kts | 242° |
| 2026-05-04 06:11 | 35.56658 | 139.77837 | 38 ft | 10 kts | 298° |
| 2026-05-04 06:13 | 35.56091 | 139.77148 | 34 ft | 109 kts | 214° |
| 2026-05-04 06:14 | 35.50587 | 139.75965 | 2314 ft | 197 kts | 190° |
| 2026-05-04 06:14 | 35.49125 | 139.75972 | 2730 ft | 221 kts | 190° |
| 2026-05-04 06:15 | 35.47511 | 139.75977 | 3162 ft | 243 kts | 189° |
| 2026-05-04 06:15 | 35.45798 | 139.75999 | 3912 ft | 251 kts | 188° |
| 2026-05-04 06:15 | 35.44022 | 139.76046 | 4627 ft | 259 kts | 187° |
| 2026-05-04 06:15 | 35.42198 | 139.76078 | 5644 ft | 264 kts | 189° |
| 2026-05-04 06:16 | 35.40343 | 139.76096 | 6584 ft | 269 kts | 189° |
| 2026-05-04 06:16 | 35.38478 | 139.76114 | 7525 ft | 269 kts | 191° |
| 2026-05-04 06:16 | 35.36613 | 139.76125 | 8441 ft | 266 kts | 192° |
| 2026-05-04 06:16 | 35.34752 | 139.76274 | 9365 ft | 277 kts | 181° |
| 2026-05-04 06:17 | 35.32859 | 139.76951 | 10114 ft | 285 kts | 176° |
| 2026-05-04 06:17 | 35.30926 | 139.77663 | 10550 ft | 300 kts | 176° |
| 2026-05-04 06:17 | 35.28842 | 139.78388 | 10707 ft | 323 kts | 176° |
| 2026-05-04 06:17 | 35.26638 | 139.79145 | 10872 ft | 343 kts | 175° |
| 2026-05-04 06:18 | 35.24306 | 139.79732 | 11375 ft | 338 kts | 186° |
| 2026-05-04 06:18 | 35.22002 | 139.79665 | 12042 ft | 327 kts | 198° |
| 2026-05-04 06:18 | 35.19854 | 139.78940 | 12732 ft | 317 kts | 210° |
| 2026-05-04 06:20 | 35.09950 | 139.65255 | 16782 ft | 323 kts | 253° |
| 2026-05-04 06:20 | 35.09501 | 139.62552 | 17335 ft | 326 kts | 254° |
| 2026-05-04 06:21 | 35.07685 | 139.51559 | 19229 ft | 334 kts | 254° |
| 2026-05-04 06:21 | 35.07221 | 139.48769 | 19661 ft | 336 kts | 254° |
| 2026-05-04 06:22 | 35.06756 | 139.45969 | 20089 ft | 338 kts | 254° |
| 2026-05-04 06:22 | 35.06288 | 139.43148 | 20496 ft | 340 kts | 254° |
| 2026-05-04 06:25 | 34.99896 | 139.05025 | 24715 ft | 364 kts | 254° |
| 2026-05-04 06:25 | 34.99383 | 139.01998 | 25060 ft | 365 kts | 253° |
| 2026-05-04 06:26 | 34.98877 | 138.98955 | 25312 ft | 368 kts | 256° |
| 2026-05-04 06:26 | 34.98641 | 138.95818 | 25573 ft | 374 kts | 260° |
| 2026-05-04 06:26 | 34.98484 | 138.92650 | 25813 ft | 375 kts | 261° |
| 2026-05-04 06:26 | 34.98325 | 138.89469 | 26027 ft | 376 kts | 260° |
| 2026-05-04 06:27 | 34.97651 | 138.76682 | 26931 ft | 380 kts | 260° |
| 2026-05-04 06:28 | 34.97479 | 138.73459 | 27151 ft | 381 kts | 260° |
| 2026-05-04 06:28 | 34.97305 | 138.70225 | 27365 ft | 383 kts | 260° |
| 2026-05-04 06:28 | 34.97133 | 138.66988 | 27573 ft | 384 kts | 260° |
| 2026-05-04 06:28 | 34.96959 | 138.63739 | 27834 ft | 383 kts | 260° |
| 2026-05-04 06:29 | 34.96785 | 138.60501 | 28141 ft | 382 kts | 260° |
| 2026-05-04 06:29 | 34.96609 | 138.57278 | 28445 ft | 381 kts | 260° |
| 2026-05-04 06:29 | 34.96433 | 138.54059 | 28734 ft | 380 kts | 260° |
| 2026-05-04 06:29 | 34.96260 | 138.50893 | 29026 ft | 379 kts | 259° |
| 2026-05-04 06:30 | 34.96083 | 138.47694 | 29325 ft | 378 kts | 259° |
| 2026-05-04 06:30 | 34.95904 | 138.44497 | 29636 ft | 377 kts | 259° |
| 2026-05-04 06:30 | 34.95726 | 138.41308 | 29920 ft | 377 kts | 259° |
| 2026-05-04 06:30 | 34.95550 | 138.38128 | 30183 ft | 376 kts | 259° |
| 2026-05-04 06:31 | 34.95373 | 138.34958 | 30451 ft | 374 kts | 259° |
| 2026-05-04 06:31 | 34.95195 | 138.31795 | 30755 ft | 374 kts | 257° |
| 2026-05-04 06:31 | 34.95017 | 138.28646 | 31115 ft | 372 kts | 258° |
| 2026-05-04 06:31 | 34.94836 | 138.25512 | 31444 ft | 370 kts | 258° |
| 2026-05-04 06:32 | 34.94651 | 138.22389 | 31639 ft | 370 kts | 258° |
| 2026-05-04 06:33 | 34.93384 | 138.00614 | 31691 ft | 367 kts | 258° |
| 2026-05-04 06:34 | 34.93016 | 137.94416 | 31699 ft | 367 kts | 258° |
| 2026-05-04 06:34 | 34.92639 | 137.88217 | 31718 ft | 367 kts | 258° |
| 2026-05-04 06:36 | 34.90301 | 137.63843 | 31766 ft | 354 kts | 246° |
| 2026-05-04 06:37 | 34.88658 | 137.58194 | 31767 ft | 353 kts | 246° |
| 2026-05-04 06:37 | 34.87302 | 137.53507 | 31769 ft | 352 kts | 246° |
| 2026-05-04 06:38 | 34.85680 | 137.47873 | 31776 ft | 352 kts | 246° |
| 2026-05-04 06:40 | 34.79163 | 137.25445 | 31787 ft | 351 kts | 246° |
| 2026-05-04 06:40 | 34.77526 | 137.19860 | 31790 ft | 350 kts | 246° |
| 2026-05-04 06:41 | 34.75898 | 137.14284 | 31787 ft | 350 kts | 246° |
| 2026-05-04 06:41 | 34.74268 | 137.08711 | 31785 ft | 350 kts | 246° |
| 2026-05-04 06:42 | 34.72635 | 137.03147 | 31784 ft | 349 kts | 246° |
| 2026-05-04 06:44 | 34.68141 | 136.80075 | 31765 ft | 353 kts | 254° |
| 2026-05-04 06:44 | 34.67268 | 136.74212 | 31772 ft | 353 kts | 254° |
| 2026-05-04 06:45 | 34.66391 | 136.68348 | 31771 ft | 353 kts | 254° |
| 2026-05-04 06:45 | 34.65514 | 136.62481 | 31794 ft | 353 kts | 254° |
| 2026-05-04 06:46 | 34.64637 | 136.56608 | 31791 ft | 353 kts | 254° |
| 2026-05-04 06:46 | 34.63764 | 136.50779 | 31791 ft | 353 kts | 254° |
| 2026-05-04 06:48 | 34.60186 | 136.27249 | 31772 ft | 356 kts | 254° |
| 2026-05-04 06:50 | 34.56418 | 136.03607 | 31791 ft | 358 kts | 253° |
| 2026-05-04 06:51 | 34.55448 | 135.97688 | 31810 ft | 357 kts | 253° |
| 2026-05-04 06:51 | 34.54476 | 135.91778 | 31825 ft | 357 kts | 253° |
| 2026-05-04 06:52 | 34.53502 | 135.85871 | 31833 ft | 357 kts | 253° |
| 2026-05-04 06:52 | 34.52528 | 135.79979 | 31842 ft | 356 kts | 253° |
| 2026-05-04 06:53 | 34.51552 | 135.74094 | 31846 ft | 356 kts | 253° |
| 2026-05-04 06:53 | 34.50578 | 135.68225 | 31848 ft | 355 kts | 253° |
| 2026-05-04 06:54 | 34.49604 | 135.62363 | 31857 ft | 355 kts | 253° |
| 2026-05-04 06:54 | 34.48626 | 135.56509 | 31859 ft | 354 kts | 253° |
| 2026-05-04 06:55 | 34.47647 | 135.50664 | 31859 ft | 353 kts | 253° |
| 2026-05-04 06:55 | 34.46664 | 135.44835 | 31857 ft | 353 kts | 253° |
| 2026-05-04 06:57 | 34.42714 | 135.21626 | 31884 ft | 352 kts | 253° |
| 2026-05-04 06:58 | 34.41716 | 135.15835 | 31882 ft | 351 kts | 253° |
| 2026-05-04 06:58 | 34.40703 | 135.10047 | 31884 ft | 351 kts | 253° |
| 2026-05-04 06:59 | 34.39690 | 135.04267 | 31885 ft | 351 kts | 253° |
| 2026-05-04 06:59 | 34.38669 | 134.98494 | 31891 ft | 351 kts | 253° |
| 2026-05-04 07:01 | 34.34563 | 134.75416 | 31888 ft | 351 kts | 253° |
| 2026-05-04 07:02 | 34.33539 | 134.69654 | 31890 ft | 350 kts | 253° |
| 2026-05-04 07:02 | 34.32512 | 134.63933 | 31896 ft | 350 kts | 253° |
| 2026-05-04 07:03 | 34.31466 | 134.58142 | 31895 ft | 350 kts | 253° |
| 2026-05-04 07:03 | 34.30436 | 134.52440 | 31897 ft | 350 kts | 253° |
| 2026-05-04 07:04 | 34.29394 | 134.46691 | 31896 ft | 349 kts | 253° |
| 2026-05-04 07:04 | 34.28352 | 134.40955 | 31897 ft | 349 kts | 253° |
| 2026-05-04 07:05 | 34.27309 | 134.35215 | 31898 ft | 349 kts | 253° |
| 2026-05-04 07:05 | 34.26262 | 134.29482 | 31907 ft | 350 kts | 253° |
| 2026-05-04 07:06 | 34.24677 | 134.20859 | 31887 ft | 351 kts | 253° |
| 2026-05-04 07:07 | 34.23622 | 134.15113 | 31881 ft | 351 kts | 253° |
| 2026-05-04 07:08 | 34.19102 | 133.95311 | 31635 ft | 349 kts | 247° |
| 2026-05-04 07:09 | 34.18257 | 133.92573 | 31390 ft | 350 kts | 247° |
| 2026-05-04 07:09 | 34.17406 | 133.89809 | 31150 ft | 350 kts | 247° |
| 2026-05-04 07:09 | 34.16555 | 133.87048 | 30917 ft | 351 kts | 247° |
| 2026-05-04 07:09 | 34.15710 | 133.84281 | 30685 ft | 352 kts | 248° |
| 2026-05-04 07:10 | 34.14867 | 133.81495 | 30459 ft | 353 kts | 248° |
| 2026-05-04 07:10 | 34.14026 | 133.78704 | 30246 ft | 354 kts | 248° |
| 2026-05-04 07:12 | 34.08043 | 133.58968 | 28461 ft | 363 kts | 248° |
| 2026-05-04 07:12 | 34.07165 | 133.56104 | 28203 ft | 365 kts | 248° |
| 2026-05-04 07:12 | 34.06286 | 133.53230 | 27611 ft | 365 kts | 248° |
| 2026-05-04 07:12 | 34.05409 | 133.50361 | 26639 ft | 365 kts | 248° |
| 2026-05-04 07:13 | 34.04531 | 133.47494 | 25714 ft | 364 kts | 249° |
| 2026-05-04 07:13 | 34.03663 | 133.44624 | 24810 ft | 364 kts | 250° |
| 2026-05-04 07:13 | 34.02845 | 133.41735 | 23947 ft | 365 kts | 251° |
| 2026-05-04 07:14 | 33.99748 | 133.30072 | 20585 ft | 361 kts | 252° |
| 2026-05-04 07:14 | 33.98976 | 133.27200 | 19927 ft | 359 kts | 252° |
| 2026-05-04 07:15 | 33.98212 | 133.24388 | 19288 ft | 357 kts | 253° |
| 2026-05-04 07:15 | 33.97426 | 133.21517 | 18668 ft | 356 kts | 253° |
| 2026-05-04 07:15 | 33.96662 | 133.18731 | 18046 ft | 355 kts | 253° |
| 2026-05-04 07:15 | 33.95890 | 133.15910 | 17442 ft | 353 kts | 254° |
| 2026-05-04 07:16 | 33.95123 | 133.13114 | 16884 ft | 350 kts | 254° |
| 2026-05-04 07:16 | 33.94361 | 133.10347 | 16360 ft | 347 kts | 255° |
| 2026-05-04 07:16 | 33.93605 | 133.07602 | 15843 ft | 345 kts | 255° |
| 2026-05-04 07:16 | 33.92854 | 133.04870 | 15339 ft | 343 kts | 255° |
| 2026-05-04 07:17 | 33.92106 | 133.02144 | 14836 ft | 343 kts | 256° |
| 2026-05-04 07:17 | 33.91359 | 132.99422 | 14325 ft | 342 kts | 256° |
| 2026-05-04 07:17 | 33.90616 | 132.96712 | 13808 ft | 342 kts | 256° |
| 2026-05-04 07:17 | 33.89871 | 132.94000 | 13227 ft | 341 kts | 256° |
| 2026-05-04 07:18 | 33.89126 | 132.91301 | 12839 ft | 337 kts | 256° |
| 2026-05-04 07:18 | 33.88383 | 132.88610 | 12157 ft | 341 kts | 256° |
| 2026-05-04 07:18 | 33.87636 | 132.85900 | 11534 ft | 341 kts | 256° |
| 2026-05-04 07:18 | 33.86890 | 132.83208 | 11105 ft | 335 kts | 256° |
| 2026-05-04 07:19 | 33.86169 | 132.80619 | 10973 ft | 318 kts | 256° |
| 2026-05-04 07:19 | 33.85478 | 132.78155 | 10854 ft | 304 kts | 256° |
| 2026-05-04 07:19 | 33.84820 | 132.75799 | 10734 ft | 291 kts | 256° |
| 2026-05-04 07:19 | 33.84189 | 132.73536 | 10610 ft | 279 kts | 257° |
| 2026-05-04 07:20 | 33.83587 | 132.71371 | 10475 ft | 268 kts | 257° |
| 2026-05-04 07:20 | 33.83005 | 132.69270 | 10243 ft | 263 kts | 257° |
| 2026-05-04 07:20 | 33.82610 | 132.67170 | 9992 ft | 252 kts | 275° |
| 2026-05-04 07:20 | 33.82985 | 132.65145 | 9862 ft | 249 kts | 291° |
| 2026-05-04 07:22 | 33.88387 | 132.52157 | 8424 ft | 243 kts | 295° |
| 2026-05-04 07:22 | 33.89095 | 132.50333 | 8114 ft | 238 kts | 295° |
| 2026-05-04 07:23 | 33.89779 | 132.48557 | 7870 ft | 232 kts | 295° |
| 2026-05-04 07:23 | 33.90458 | 132.46793 | 7476 ft | 232 kts | 296° |
| 2026-05-04 07:23 | 33.91133 | 132.45038 | 7142 ft | 230 kts | 296° |
| 2026-05-04 07:23 | 33.91801 | 132.43303 | 6813 ft | 227 kts | 296° |
| 2026-05-04 07:24 | 33.92453 | 132.41602 | 6516 ft | 222 kts | 296° |
| 2026-05-04 07:24 | 33.93098 | 132.39919 | 6201 ft | 221 kts | 296° |
| 2026-05-04 07:24 | 33.93735 | 132.38251 | 5895 ft | 218 kts | 296° |
| 2026-05-04 07:24 | 33.94152 | 132.37159 | 5690 ft | 215 kts | 296° |
| 2026-05-04 07:25 | 33.94763 | 132.35561 | 5398 ft | 204 kts | 296° |
| 2026-05-04 07:26 | 33.98347 | 132.26150 | 3029 ft | 138 kts | 297° |
| 2026-05-04 07:27 | 33.98745 | 132.25109 | 2802 ft | 136 kts | 296° |
| 2026-05-04 07:27 | 33.99255 | 132.24160 | 2565 ft | 136 kts | 313° |
| 2026-05-04 07:27 | 34.00027 | 132.23496 | 2456 ft | 138 kts | 329° |
| 2026-05-04 07:27 | 34.00929 | 132.23109 | 2373 ft | 138 kts | 340° |
| 2026-05-04 07:28 | 34.01874 | 132.22904 | 2225 ft | 138 kts | 345° |
| 2026-05-04 07:28 | 34.02816 | 132.22776 | 2028 ft | 136 kts | 351° |
| 2026-05-04 07:28 | 34.03760 | 132.22760 | 1902 ft | 136 kts | 356° |
| 2026-05-04 07:28 | 34.04700 | 132.22865 | 1806 ft | 135 kts | 2° |
| 2026-05-04 07:29 | 34.05627 | 132.23041 | 1695 ft | 135 kts | 2° |
| 2026-05-04 07:29 | 34.06547 | 132.23228 | 1551 ft | 135 kts | 2° |
| 2026-05-04 07:29 | 34.07469 | 132.23400 | 1446 ft | 134 kts | 2° |
| 2026-05-04 07:29 | 34.08393 | 132.23566 | 1333 ft | 133 kts | 1° |
| 2026-05-04 07:30 | 34.09317 | 132.23689 | 1128 ft | 135 kts | 2° |
| 2026-05-04 07:30 | 34.10246 | 132.23855 | 850 ft | 135 kts | 5° |
| 2026-05-04 07:30 | 34.11170 | 132.24059 | 595 ft | 135 kts | 5° |
| 2026-05-04 07:30 | 34.12091 | 132.24242 | 323 ft | 133 kts | 5° |
| 2026-05-04 07:31 | 34.13017 | 132.24413 | 118 ft | 136 kts | 3° |
| 2026-05-04 07:31 | 34.13931 | 132.24583 | 20 ft | 121 kts | 8° |
| 2026-05-04 07:33 | 34.13377 | 132.28890 | 1746 ft | 236 kts | 194° |
| 2026-05-04 07:33 | 34.11685 | 132.28484 | 1955 ft | 253 kts | 197° |
| 2026-05-04 07:33 | 34.09936 | 132.27956 | 1972 ft | 268 kts | 199° |
| 2026-05-04 07:33 | 34.08148 | 132.27346 | 1854 ft | 265 kts | 201° |
| 2026-05-04 07:34 | 34.06394 | 132.26683 | 1718 ft | 261 kts | 202° |
| 2026-05-04 07:34 | 34.04686 | 132.26194 | 1514 ft | 242 kts | 188° |
| 2026-05-04 07:34 | 34.03066 | 132.25977 | 1713 ft | 226 kts | 205° |
| 2026-05-04 07:34 | 34.01981 | 132.25009 | 2151 ft | 167 kts | 251° |
| 2026-05-04 07:35 | 34.02043 | 132.23865 | 2422 ft | 144 kts | 310° |
| 2026-05-04 07:35 | 34.02957 | 132.23439 | 2342 ft | 146 kts | 349° |
| 2026-05-04 07:35 | 34.04014 | 132.23229 | 1842 ft | 162 kts | 343° |
| 2026-05-04 07:35 | 34.05104 | 132.22977 | 1353 ft | 160 kts | 350° |
| 2026-05-04 07:36 | 34.06174 | 132.23078 | 1173 ft | 144 kts | 6° |
| 2026-05-04 07:36 | 34.07221 | 132.23298 | 1078 ft | 152 kts | 4° |
| 2026-05-04 07:38 | 34.13830 | 132.24571 | 22 ft | 119 kts | 8° |
| 2026-05-04 07:38 | 34.14514 | 132.24698 | 19 ft | 76 kts | 10° |
| 2026-05-04 07:38 | 34.14868 | 132.24764 | 21 ft | 27 kts | 359° |
| 2026-05-04 07:38 | 34.14947 | 132.24755 | 20 ft | 20 kts | 352° |